sensor_id;sensor_type;location;lat;lon;timestamp;temperature;humidity
24412;DHT22;12544;46.760;15.942;2022-08-25T00:01:36;22.10;99.90
24412;DHT22;12544;46.760;15.942;2022-08-25T00:04:03;22.00;99.90
24412;DHT22;12544;46.760;15.942;2022-08-25T00:06:29;22.00;99.90
24412;DHT22;12544;46.760;15.942;2022-08-25T00:08:55;22.00;99.90
24412;DHT22;12544;46.760;15.942;2022-08-25T00:11:24;22.00;99.90
24412;DHT22;12544;46.760;15.942;2022-08-25T00:13:51;22.00;99.90
24412;DHT22;12544;46.760;15.942;2022-08-25T00:16:18;22.00;99.90
24412;DHT22;12544;46.760;15.942;2022-08-25T00:18:45;22.00;99.90
24412;DHT22;12544;46.760;15.942;2022-08-25T00:21:12;22.00;99.90
24412;DHT22;12544;46.760;15.942;2022-08-25T00:23:38;22.00;99.90
24412;DHT22;12544;46.760;15.942;2022-08-25T00:26:04;21.90;99.90
24412;DHT22;12544;46.760;15.942;2022-08-25T00:28:29;21.90;99.90
24412;DHT22;12544;46.760;15.942;2022-08-25T00:31:09;21.80;99.90
24412;DHT22;12544;46.760;15.942;2022-08-25T00:33:35;21.70;99.90
24412;DHT22;12544;46.760;15.942;2022-08-25T00:36:00;21.60;99.90
24412;DHT22;12544;46.760;15.942;2022-08-25T00:38:26;21.70;99.90
24412;DHT22;12544;46.760;15.942;2022-08-25T00:40:52;21.70;99.90
24412;DHT22;12544;46.760;15.942;2022-08-25T00:43:33;21.80;99.90
24412;DHT22;12544;46.760;15.942;2022-08-25T00:45:59;21.80;99.90
24412;DHT22;12544;46.760;15.942;2022-08-25T00:48:25;21.80;99.90
24412;DHT22;12544;46.760;15.942;2022-08-25T00:50:50;21.80;99.90
24412;DHT22;12544;46.760;15.942;2022-08-25T00:53:16;21.80;99.90
24412;DHT22;12544;46.760;15.942;2022-08-25T00:55:41;21.70;99.90
24412;DHT22;12544;46.760;15.942;2022-08-25T00:58:12;21.70;99.90
24412;DHT22;12544;46.760;15.942;2022-08-25T01:00:40;21.70;99.90
24412;DHT22;12544;46.760;15.942;2022-08-25T01:03:06;21.60;99.90
24412;DHT22;12544;46.760;15.942;2022-08-25T01:05:32;21.60;99.90
24412;DHT22;12544;46.760;15.942;2022-08-25T01:07:58;21.50;99.90
24412;DHT22;12544;46.760;15.942;2022-08-25T01:10:28;21.40;99.90
24412;DHT22;12544;46.760;15.942;2022-08-25T01:12:55;21.40;99.90
24412;DHT22;12544;46.760;15.942;2022-08-25T01:15:28;21.40;99.90
24412;DHT22;12544;46.760;15.942;2022-08-25T01:17:54;21.30;99.90
24412;DHT22;12544;46.760;15.942;2022-08-25T01:20:22;21.30;99.90
24412;DHT22;12544;46.760;15.942;2022-08-25T01:22:48;21.20;99.90
24412;DHT22;12544;46.760;15.942;2022-08-25T01:27:49;21.10;99.90
24412;DHT22;12544;46.760;15.942;2022-08-25T01:30:14;21.00;99.90
24412;DHT22;12544;46.760;15.942;2022-08-25T01:32:40;20.90;99.90
24412;DHT22;12544;46.760;15.942;2022-08-25T01:35:05;20.90;99.90
24412;DHT22;12544;46.760;15.942;2022-08-25T01:37:32;20.90;99.90
24412;DHT22;12544;46.760;15.942;2022-08-25T01:39:58;20.90;99.90
24412;DHT22;12544;46.760;15.942;2022-08-25T01:44:52;20.90;99.90
24412;DHT22;12544;46.760;15.942;2022-08-25T01:47:18;20.80;99.90
24412;DHT22;12544;46.760;15.942;2022-08-25T01:49:44;20.80;99.90
24412;DHT22;12544;46.760;15.942;2022-08-25T01:54:41;20.70;99.90
24412;DHT22;12544;46.760;15.942;2022-08-25T01:57:07;20.70;99.90
24412;DHT22;12544;46.760;15.942;2022-08-25T01:59:33;20.60;99.90
24412;DHT22;12544;46.760;15.942;2022-08-25T02:01:59;20.50;99.90
24412;DHT22;12544;46.760;15.942;2022-08-25T02:04:24;20.40;99.90
24412;DHT22;12544;46.760;15.942;2022-08-25T02:06:51;20.30;99.90
24412;DHT22;12544;46.760;15.942;2022-08-25T02:09:16;20.30;99.90
24412;DHT22;12544;46.760;15.942;2022-08-25T02:11:43;20.30;99.90
24412;DHT22;12544;46.760;15.942;2022-08-25T02:14:09;20.30;99.90
24412;DHT22;12544;46.760;15.942;2022-08-25T02:16:37;20.30;99.90
24412;DHT22;12544;46.760;15.942;2022-08-25T02:19:04;20.30;99.90
24412;DHT22;12544;46.760;15.942;2022-08-25T02:21:32;20.30;99.90
24412;DHT22;12544;46.760;15.942;2022-08-25T02:23:57;20.30;99.90
24412;DHT22;12544;46.760;15.942;2022-08-25T02:26:23;20.40;99.90
24412;DHT22;12544;46.760;15.942;2022-08-25T02:28:50;20.40;99.90
24412;DHT22;12544;46.760;15.942;2022-08-25T02:31:16;20.30;99.90
24412;DHT22;12544;46.760;15.942;2022-08-25T02:33:42;20.30;99.90
24412;DHT22;12544;46.760;15.942;2022-08-25T02:36:08;20.30;99.90
24412;DHT22;12544;46.760;15.942;2022-08-25T02:38:34;20.40;99.90
24412;DHT22;12544;46.760;15.942;2022-08-25T02:41:00;20.40;99.90
24412;DHT22;12544;46.760;15.942;2022-08-25T02:43:26;20.40;99.90
24412;DHT22;12544;46.760;15.942;2022-08-25T02:45:52;20.40;99.90
24412;DHT22;12544;46.760;15.942;2022-08-25T02:48:18;20.30;99.90
24412;DHT22;12544;46.760;15.942;2022-08-25T02:50:47;20.40;99.90
24412;DHT22;12544;46.760;15.942;2022-08-25T02:53:13;20.40;99.90
24412;DHT22;12544;46.760;15.942;2022-08-25T02:55:38;20.40;99.90
24412;DHT22;12544;46.760;15.942;2022-08-25T02:58:04;20.50;99.90
24412;DHT22;12544;46.760;15.942;2022-08-25T03:00:30;20.50;99.90
24412;DHT22;12544;46.760;15.942;2022-08-25T03:02:55;20.50;99.90
24412;DHT22;12544;46.760;15.942;2022-08-25T03:05:21;20.50;99.90
24412;DHT22;12544;46.760;15.942;2022-08-25T03:07:47;20.50;99.90
24412;DHT22;12544;46.760;15.942;2022-08-25T03:10:14;20.50;99.90
24412;DHT22;12544;46.760;15.942;2022-08-25T03:12:40;20.40;99.90
24412;DHT22;12544;46.760;15.942;2022-08-25T03:15:06;20.50;99.90
24412;DHT22;12544;46.760;15.942;2022-08-25T03:17:32;20.50;99.90
24412;DHT22;12544;46.760;15.942;2022-08-25T03:19:57;20.50;99.90
24412;DHT22;12544;46.760;15.942;2022-08-25T03:22:23;20.50;99.90
24412;DHT22;12544;46.760;15.942;2022-08-25T03:24:48;20.50;99.90
24412;DHT22;12544;46.760;15.942;2022-08-25T03:27:14;20.50;99.90
24412;DHT22;12544;46.760;15.942;2022-08-25T03:29:39;20.40;99.90
24412;DHT22;12544;46.760;15.942;2022-08-25T03:32:08;20.40;99.90
24412;DHT22;12544;46.760;15.942;2022-08-25T03:34:33;20.40;99.90
24412;DHT22;12544;46.760;15.942;2022-08-25T03:36:59;20.40;99.90
24412;DHT22;12544;46.760;15.942;2022-08-25T03:39:25;20.40;99.90
24412;DHT22;12544;46.760;15.942;2022-08-25T03:41:51;20.30;99.90
24412;DHT22;12544;46.760;15.942;2022-08-25T03:44:17;20.40;99.90
24412;DHT22;12544;46.760;15.942;2022-08-25T03:46:44;20.40;99.90
24412;DHT22;12544;46.760;15.942;2022-08-25T03:49:14;20.40;99.90
24412;DHT22;12544;46.760;15.942;2022-08-25T03:51:41;20.40;99.90
24412;DHT22;12544;46.760;15.942;2022-08-25T03:54:07;20.40;99.90
24412;DHT22;12544;46.760;15.942;2022-08-25T03:56:34;20.30;99.90
24412;DHT22;12544;46.760;15.942;2022-08-25T03:59:01;20.30;99.90
24412;DHT22;12544;46.760;15.942;2022-08-25T04:01:27;20.30;99.90
24412;DHT22;12544;46.760;15.942;2022-08-25T04:03:53;20.20;99.90
24412;DHT22;12544;46.760;15.942;2022-08-25T04:06:19;20.20;99.90
24412;DHT22;12544;46.760;15.942;2022-08-25T04:08:45;20.20;99.90
24412;DHT22;12544;46.760;15.942;2022-08-25T04:11:12;20.20;99.90
24412;DHT22;12544;46.760;15.942;2022-08-25T04:13:38;20.20;99.90
24412;DHT22;12544;46.760;15.942;2022-08-25T04:16:17;20.10;99.90
24412;DHT22;12544;46.760;15.942;2022-08-25T04:18:44;20.10;99.90
24412;DHT22;12544;46.760;15.942;2022-08-25T04:21:10;20.20;99.90
24412;DHT22;12544;46.760;15.942;2022-08-25T04:23:38;20.20;99.90
24412;DHT22;12544;46.760;15.942;2022-08-25T04:26:21;20.20;99.90
24412;DHT22;12544;46.760;15.942;2022-08-25T04:28:55;20.20;99.90
24412;DHT22;12544;46.760;15.942;2022-08-25T04:31:20;20.20;99.90
24412;DHT22;12544;46.760;15.942;2022-08-25T04:33:48;20.30;99.90
24412;DHT22;12544;46.760;15.942;2022-08-25T04:36:15;20.20;99.90
24412;DHT22;12544;46.760;15.942;2022-08-25T04:38:41;20.30;99.90
24412;DHT22;12544;46.760;15.942;2022-08-25T04:41:08;20.30;99.90
24412;DHT22;12544;46.760;15.942;2022-08-25T04:43:34;20.40;99.90
24412;DHT22;12544;46.760;15.942;2022-08-25T04:46:04;20.30;99.90
24412;DHT22;12544;46.760;15.942;2022-08-25T04:48:30;20.30;99.90
24412;DHT22;12544;46.760;15.942;2022-08-25T04:50:56;20.40;99.90
24412;DHT22;12544;46.760;15.942;2022-08-25T04:53:22;20.40;99.90
24412;DHT22;12544;46.760;15.942;2022-08-25T04:55:48;20.50;99.90
24412;DHT22;12544;46.760;15.942;2022-08-25T04:58:14;20.50;99.90
24412;DHT22;12544;46.760;15.942;2022-08-25T05:00:40;20.40;99.90
24412;DHT22;12544;46.760;15.942;2022-08-25T05:03:06;20.40;99.90
24412;DHT22;12544;46.760;15.942;2022-08-25T05:05:34;20.40;99.90
24412;DHT22;12544;46.760;15.942;2022-08-25T05:08:00;20.30;99.90
24412;DHT22;12544;46.760;15.942;2022-08-25T05:10:25;20.30;99.90
24412;DHT22;12544;46.760;15.942;2022-08-25T05:12:51;20.30;99.90
24412;DHT22;12544;46.760;15.942;2022-08-25T05:15:17;20.30;99.90
24412;DHT22;12544;46.760;15.942;2022-08-25T05:18:03;20.20;99.90
24412;DHT22;12544;46.760;15.942;2022-08-25T05:20:29;20.30;99.90
24412;DHT22;12544;46.760;15.942;2022-08-25T05:22:55;20.30;99.90
24412;DHT22;12544;46.760;15.942;2022-08-25T05:25:31;20.40;99.90
24412;DHT22;12544;46.760;15.942;2022-08-25T05:27:56;20.40;99.90
24412;DHT22;12544;46.760;15.942;2022-08-25T05:30:22;20.50;99.90
24412;DHT22;12544;46.760;15.942;2022-08-25T05:32:47;20.60;99.90
24412;DHT22;12544;46.760;15.942;2022-08-25T05:35:13;20.60;99.90
24412;DHT22;12544;46.760;15.942;2022-08-25T05:37:40;20.70;99.90
24412;DHT22;12544;46.760;15.942;2022-08-25T05:40:06;20.60;99.90
24412;DHT22;12544;46.760;15.942;2022-08-25T05:42:32;20.70;99.90
24412;DHT22;12544;46.760;15.942;2022-08-25T05:44:58;20.70;99.90
24412;DHT22;12544;46.760;15.942;2022-08-25T05:47:24;20.70;99.90
24412;DHT22;12544;46.760;15.942;2022-08-25T05:49:49;20.90;99.90
24412;DHT22;12544;46.760;15.942;2022-08-25T05:52:15;20.90;99.90
24412;DHT22;12544;46.760;15.942;2022-08-25T05:54:45;21.10;99.90
24412;DHT22;12544;46.760;15.942;2022-08-25T05:57:11;21.30;99.90
24412;DHT22;12544;46.760;15.942;2022-08-25T05:59:36;21.40;99.90
24412;DHT22;12544;46.760;15.942;2022-08-25T06:02:02;21.60;99.90
24412;DHT22;12544;46.760;15.942;2022-08-25T06:04:54;21.70;99.90
24412;DHT22;12544;46.760;15.942;2022-08-25T06:07:19;21.70;99.90
24412;DHT22;12544;46.760;15.942;2022-08-25T06:09:45;21.80;99.90
24412;DHT22;12544;46.760;15.942;2022-08-25T06:12:13;21.90;99.90
24412;DHT22;12544;46.760;15.942;2022-08-25T06:14:39;22.00;99.90
24412;DHT22;12544;46.760;15.942;2022-08-25T06:17:04;22.20;99.90
24412;DHT22;12544;46.760;15.942;2022-08-25T06:19:30;22.10;99.90
24412;DHT22;12544;46.760;15.942;2022-08-25T06:21:56;22.00;99.90
24412;DHT22;12544;46.760;15.942;2022-08-25T06:24:22;22.00;99.90
24412;DHT22;12544;46.760;15.942;2022-08-25T06:26:47;22.10;99.90
24412;DHT22;12544;46.760;15.942;2022-08-25T06:29:13;22.20;99.90
24412;DHT22;12544;46.760;15.942;2022-08-25T06:31:38;22.30;99.90
24412;DHT22;12544;46.760;15.942;2022-08-25T06:34:04;22.40;99.90
24412;DHT22;12544;46.760;15.942;2022-08-25T06:36:30;22.40;99.90
24412;DHT22;12544;46.760;15.942;2022-08-25T06:38:56;22.40;99.90
24412;DHT22;12544;46.760;15.942;2022-08-25T06:41:24;22.30;99.90
24412;DHT22;12544;46.760;15.942;2022-08-25T06:43:50;22.20;99.90
24412;DHT22;12544;46.760;15.942;2022-08-25T06:46:17;22.10;99.90
24412;DHT22;12544;46.760;15.942;2022-08-25T06:48:43;22.00;99.90
24412;DHT22;12544;46.760;15.942;2022-08-25T06:51:10;22.00;99.90
24412;DHT22;12544;46.760;15.942;2022-08-25T06:53:36;22.20;99.90
24412;DHT22;12544;46.760;15.942;2022-08-25T06:56:02;22.40;99.90
24412;DHT22;12544;46.760;15.942;2022-08-25T06:58:28;22.50;99.90
24412;DHT22;12544;46.760;15.942;2022-08-25T07:00:54;22.50;99.90
24412;DHT22;12544;46.760;15.942;2022-08-25T07:03:19;22.60;99.90
24412;DHT22;12544;46.760;15.942;2022-08-25T07:05:52;22.40;99.90
24412;DHT22;12544;46.760;15.942;2022-08-25T07:08:17;22.40;99.90
24412;DHT22;12544;46.760;15.942;2022-08-25T07:10:43;22.30;99.90
24412;DHT22;12544;46.760;15.942;2022-08-25T07:13:09;22.30;99.90
24412;DHT22;12544;46.760;15.942;2022-08-25T07:15:37;22.10;99.90
24412;DHT22;12544;46.760;15.942;2022-08-25T07:18:03;22.00;99.90
24412;DHT22;12544;46.760;15.942;2022-08-25T07:20:29;22.00;99.90
24412;DHT22;12544;46.760;15.942;2022-08-25T07:22:55;22.00;99.90
24412;DHT22;12544;46.760;15.942;2022-08-25T07:25:21;22.10;99.90
24412;DHT22;12544;46.760;15.942;2022-08-25T07:27:47;22.10;99.90
24412;DHT22;12544;46.760;15.942;2022-08-25T07:30:13;22.00;99.90
24412;DHT22;12544;46.760;15.942;2022-08-25T07:32:40;22.00;99.90
24412;DHT22;12544;46.760;15.942;2022-08-25T07:35:06;22.00;99.90
24412;DHT22;12544;46.760;15.942;2022-08-25T07:37:45;22.00;99.90
24412;DHT22;12544;46.760;15.942;2022-08-25T07:40:16;22.00;99.90
24412;DHT22;12544;46.760;15.942;2022-08-25T07:42:42;22.20;99.90
24412;DHT22;12544;46.760;15.942;2022-08-25T07:45:08;22.40;99.90
24412;DHT22;12544;46.760;15.942;2022-08-25T07:47:35;22.40;99.90
24412;DHT22;12544;46.760;15.942;2022-08-25T07:50:00;22.50;99.90
24412;DHT22;12544;46.760;15.942;2022-08-25T07:52:28;22.50;99.90
24412;DHT22;12544;46.760;15.942;2022-08-25T07:54:54;22.40;99.90
24412;DHT22;12544;46.760;15.942;2022-08-25T07:57:19;22.40;99.90
24412;DHT22;12544;46.760;15.942;2022-08-25T07:59:46;22.40;99.90
24412;DHT22;12544;46.760;15.942;2022-08-25T08:02:13;22.50;99.90
24412;DHT22;12544;46.760;15.942;2022-08-25T08:04:38;22.70;99.90
24412;DHT22;12544;46.760;15.942;2022-08-25T08:07:04;22.70;99.90
24412;DHT22;12544;46.760;15.942;2022-08-25T08:09:30;22.60;99.90
24412;DHT22;12544;46.760;15.942;2022-08-25T08:11:56;22.60;99.90
24412;DHT22;12544;46.760;15.942;2022-08-25T08:14:22;22.50;99.90
24412;DHT22;12544;46.760;15.942;2022-08-25T08:16:48;22.60;99.90
24412;DHT22;12544;46.760;15.942;2022-08-25T08:19:14;22.60;99.90
24412;DHT22;12544;46.760;15.942;2022-08-25T08:21:40;22.60;99.90
24412;DHT22;12544;46.760;15.942;2022-08-25T08:24:06;22.70;99.90
24412;DHT22;12544;46.760;15.942;2022-08-25T08:26:31;22.70;99.90
24412;DHT22;12544;46.760;15.942;2022-08-25T08:31:28;23.00;99.90
24412;DHT22;12544;46.760;15.942;2022-08-25T08:33:54;23.20;99.90
24412;DHT22;12544;46.760;15.942;2022-08-25T08:36:21;23.10;99.90
24412;DHT22;12544;46.760;15.942;2022-08-25T08:38:47;23.10;99.90
24412;DHT22;12544;46.760;15.942;2022-08-25T08:46:36;23.20;99.90
24412;DHT22;12544;46.760;15.942;2022-08-25T08:49:05;23.30;99.90
24412;DHT22;12544;46.760;15.942;2022-08-25T08:51:46;23.30;99.90
24412;DHT22;12544;46.760;15.942;2022-08-25T08:54:18;23.30;99.90
24412;DHT22;12544;46.760;15.942;2022-08-25T08:56:46;23.40;99.90
24412;DHT22;12544;46.760;15.942;2022-08-25T08:59:15;23.40;99.90
24412;DHT22;12544;46.760;15.942;2022-08-25T09:01:44;23.50;99.90
24412;DHT22;12544;46.760;15.942;2022-08-25T09:04:54;23.50;99.90
24412;DHT22;12544;46.760;15.942;2022-08-25T09:07:00;23.70;99.90
24412;DHT22;12544;46.760;15.942;2022-08-25T09:09:29;23.70;99.90
24412;DHT22;12544;46.760;15.942;2022-08-25T09:30:13;24.20;99.90
24412;DHT22;12544;46.760;15.942;2022-08-25T09:32:40;24.40;99.90
24412;DHT22;12544;46.760;15.942;2022-08-25T09:35:08;24.40;99.90
24412;DHT22;12544;46.760;15.942;2022-08-25T09:37:38;24.50;99.90
24412;DHT22;12544;46.760;15.942;2022-08-25T09:40:04;24.70;99.90
24412;DHT22;12544;46.760;15.942;2022-08-25T09:42:48;24.80;99.90
24412;DHT22;12544;46.760;15.942;2022-08-25T09:45:14;25.00;99.90
24412;DHT22;12544;46.760;15.942;2022-08-25T09:47:43;24.90;99.90
24412;DHT22;12544;46.760;15.942;2022-08-25T09:50:16;25.00;99.90
24412;DHT22;12544;46.760;15.942;2022-08-25T09:52:43;25.00;99.90
24412;DHT22;12544;46.760;15.942;2022-08-25T09:57:45;25.00;99.90
24412;DHT22;12544;46.760;15.942;2022-08-25T10:02:44;25.20;99.90
24412;DHT22;12544;46.760;15.942;2022-08-25T10:05:25;25.30;99.90
24412;DHT22;12544;46.760;15.942;2022-08-25T10:07:54;25.40;99.90
24412;DHT22;12544;46.760;15.942;2022-08-25T10:10:24;25.50;99.90
24412;DHT22;12544;46.760;15.942;2022-08-25T10:12:50;25.70;99.90
24412;DHT22;12544;46.760;15.942;2022-08-25T10:17:41;26.10;99.90
24412;DHT22;12544;46.760;15.942;2022-08-25T10:22:35;26.00;99.90
24412;DHT22;12544;46.760;15.942;2022-08-25T10:25:02;25.80;99.90
24412;DHT22;12544;46.760;15.942;2022-08-25T10:35:14;26.50;99.90
24412;DHT22;12544;46.760;15.942;2022-08-25T10:43:01;27.00;99.90
24412;DHT22;12544;46.760;15.942;2022-08-25T10:45:33;27.10;99.90
24412;DHT22;12544;46.760;15.942;2022-08-25T10:50:40;27.30;99.90
24412;DHT22;12544;46.760;15.942;2022-08-25T10:55:42;27.50;99.90
24412;DHT22;12544;46.760;15.942;2022-08-25T11:00:59;27.40;99.90
24412;DHT22;12544;46.760;15.942;2022-08-25T11:06:04;27.30;99.90
24412;DHT22;12544;46.760;15.942;2022-08-25T11:08:48;27.20;99.90
24412;DHT22;12544;46.760;15.942;2022-08-25T11:11:36;27.20;99.90
24412;DHT22;12544;46.760;15.942;2022-08-25T11:14:08;27.10;99.90
24412;DHT22;12544;46.760;15.942;2022-08-25T11:21:31;27.40;99.90
24412;DHT22;12544;46.760;15.942;2022-08-25T11:24:05;27.60;99.90
24412;DHT22;12544;46.760;15.942;2022-08-25T11:26:34;27.70;99.90
24412;DHT22;12544;46.760;15.942;2022-08-25T11:29:04;27.80;99.90
24412;DHT22;12544;46.760;15.942;2022-08-25T11:31:34;27.70;99.90
24412;DHT22;12544;46.760;15.942;2022-08-25T11:34:01;27.70;99.90
24412;DHT22;12544;46.760;15.942;2022-08-25T11:36:34;27.70;99.90
24412;DHT22;12544;46.760;15.942;2022-08-25T11:52:08;28.50;99.90
24412;DHT22;12544;46.760;15.942;2022-08-25T11:54:51;28.70;99.90
24412;DHT22;12544;46.760;15.942;2022-08-25T11:57:18;29.00;99.90
24412;DHT22;12544;46.760;15.942;2022-08-25T12:02:30;28.90;99.90
24412;DHT22;12544;46.760;15.942;2022-08-25T12:04:57;28.70;99.90
24412;DHT22;12544;46.760;15.942;2022-08-25T12:07:27;28.60;99.90
24412;DHT22;12544;46.760;15.942;2022-08-25T12:14:53;28.20;99.90
24412;DHT22;12544;46.760;15.942;2022-08-25T12:17:23;28.20;99.90
24412;DHT22;12544;46.760;15.942;2022-08-25T12:19:51;28.30;99.90
24412;DHT22;12544;46.760;15.942;2022-08-25T12:29:54;28.40;99.90
24412;DHT22;12544;46.760;15.942;2022-08-25T12:34:53;28.30;99.90
24412;DHT22;12544;46.760;15.942;2022-08-25T12:37:25;28.40;99.90
24412;DHT22;12544;46.760;15.942;2022-08-25T12:42:21;28.40;99.90
24412;DHT22;12544;46.760;15.942;2022-08-25T12:44:48;28.50;99.90
24412;DHT22;12544;46.760;15.942;2022-08-25T12:47:31;28.70;99.90
24412;DHT22;12544;46.760;15.942;2022-08-25T12:52:42;29.30;99.50
24412;DHT22;12544;46.760;15.942;2022-08-25T12:55:08;29.30;99.00
24412;DHT22;12544;46.760;15.942;2022-08-25T12:57:44;29.30;98.20
24412;DHT22;12544;46.760;15.942;2022-08-25T13:10:41;29.10;98.50
24412;DHT22;12544;46.760;15.942;2022-08-25T13:13:15;29.10;99.40
24412;DHT22;12544;46.760;15.942;2022-08-25T13:15:56;29.00;98.10
24412;DHT22;12544;46.760;15.942;2022-08-25T13:20:48;29.00;98.00
24412;DHT22;12544;46.760;15.942;2022-08-25T13:23:17;29.20;97.60
24412;DHT22;12544;46.760;15.942;2022-08-25T13:25:48;29.10;98.10
24412;DHT22;12544;46.760;15.942;2022-08-25T13:28:35;29.10;97.90
24412;DHT22;12544;46.760;15.942;2022-08-25T13:31:04;28.80;97.20
24412;DHT22;12544;46.760;15.942;2022-08-25T13:33:30;28.80;96.90
24412;DHT22;12544;46.760;15.942;2022-08-25T13:35:57;28.80;96.60
24412;DHT22;12544;46.760;15.942;2022-08-25T13:38:42;29.10;98.30
24412;DHT22;12544;46.760;15.942;2022-08-25T13:41:08;29.30;97.60
24412;DHT22;12544;46.760;15.942;2022-08-25T13:43:36;29.30;96.30
24412;DHT22;12544;46.760;15.942;2022-08-25T13:46:02;29.40;96.20
24412;DHT22;12544;46.760;15.942;2022-08-25T13:48:33;29.60;96.10
24412;DHT22;12544;46.760;15.942;2022-08-25T13:53:33;29.80;95.00
24412;DHT22;12544;46.760;15.942;2022-08-25T13:55:59;30.00;95.60
24412;DHT22;12544;46.760;15.942;2022-08-25T14:01:26;30.00;95.40
24412;DHT22;12544;46.760;15.942;2022-08-25T14:03:45;30.10;95.00
24412;DHT22;12544;46.760;15.942;2022-08-25T14:08:40;30.50;94.60
24412;DHT22;12544;46.760;15.942;2022-08-25T14:11:14;30.80;94.40
24412;DHT22;12544;46.760;15.942;2022-08-25T14:13:41;31.00;94.00
24412;DHT22;12544;46.760;15.942;2022-08-25T14:16:08;31.10;93.60
24412;DHT22;12544;46.760;15.942;2022-08-25T14:18:35;31.20;92.80
24412;DHT22;12544;46.760;15.942;2022-08-25T14:21:02;31.20;92.70
24412;DHT22;12544;46.760;15.942;2022-08-25T14:23:32;31.20;93.10
24412;DHT22;12544;46.760;15.942;2022-08-25T14:25:59;31.20;92.70
24412;DHT22;12544;46.760;15.942;2022-08-25T14:28:26;31.30;92.40
24412;DHT22;12544;46.760;15.942;2022-08-25T14:30:54;31.30;92.10
24412;DHT22;12544;46.760;15.942;2022-08-25T14:33:21;31.30;92.60
24412;DHT22;12544;46.760;15.942;2022-08-25T14:35:49;31.00;92.00
24412;DHT22;12544;46.760;15.942;2022-08-25T14:38:16;31.00;91.90
24412;DHT22;12544;46.760;15.942;2022-08-25T14:40:42;31.20;91.90
24412;DHT22;12544;46.760;15.942;2022-08-25T14:43:07;31.30;91.80
24412;DHT22;12544;46.760;15.942;2022-08-25T14:45:34;31.10;91.90
24412;DHT22;12544;46.760;15.942;2022-08-25T14:48:04;30.60;92.10
24412;DHT22;12544;46.760;15.942;2022-08-25T14:50:31;30.30;92.60
24412;DHT22;12544;46.760;15.942;2022-08-25T14:52:57;30.00;92.80
24412;DHT22;12544;46.760;15.942;2022-08-25T14:55:23;29.80;92.60
24412;DHT22;12544;46.760;15.942;2022-08-25T14:57:48;29.40;93.40
24412;DHT22;12544;46.760;15.942;2022-08-25T15:00:15;29.00;93.70
24412;DHT22;12544;46.760;15.942;2022-08-25T15:02:41;28.80;94.20
24412;DHT22;12544;46.760;15.942;2022-08-25T15:05:08;28.60;94.80
24412;DHT22;12544;46.760;15.942;2022-08-25T15:07:36;28.60;95.50
24412;DHT22;12544;46.760;15.942;2022-08-25T15:10:20;28.50;95.60
24412;DHT22;12544;46.760;15.942;2022-08-25T15:12:46;28.50;95.90
24412;DHT22;12544;46.760;15.942;2022-08-25T15:15:11;28.40;96.20
24412;DHT22;12544;46.760;15.942;2022-08-25T15:17:38;28.60;96.30
24412;DHT22;12544;46.760;15.942;2022-08-25T15:20:04;28.90;96.40
24412;DHT22;12544;46.760;15.942;2022-08-25T15:22:30;29.10;96.00
24412;DHT22;12544;46.760;15.942;2022-08-25T15:25:01;29.10;95.20
24412;DHT22;12544;46.760;15.942;2022-08-25T15:27:27;29.30;96.10
24412;DHT22;12544;46.760;15.942;2022-08-25T15:29:52;29.40;95.20
24412;DHT22;12544;46.760;15.942;2022-08-25T15:32:18;29.60;94.90
24412;DHT22;12544;46.760;15.942;2022-08-25T15:34:43;29.70;94.90
24412;DHT22;12544;46.760;15.942;2022-08-25T15:37:13;29.80;93.90
24412;DHT22;12544;46.760;15.942;2022-08-25T15:39:40;30.00;94.30
24412;DHT22;12544;46.760;15.942;2022-08-25T15:42:05;30.10;94.30
24412;DHT22;12544;46.760;15.942;2022-08-25T15:44:31;30.10;94.50
24412;DHT22;12544;46.760;15.942;2022-08-25T15:46:57;30.30;93.90
24412;DHT22;12544;46.760;15.942;2022-08-25T15:49:23;30.30;93.90
24412;DHT22;12544;46.760;15.942;2022-08-25T15:51:50;30.30;93.50
24412;DHT22;12544;46.760;15.942;2022-08-25T15:54:16;30.40;93.40
24412;DHT22;12544;46.760;15.942;2022-08-25T15:56:42;30.40;93.30
24412;DHT22;12544;46.760;15.942;2022-08-25T15:59:08;30.30;93.00
24412;DHT22;12544;46.760;15.942;2022-08-25T16:01:34;30.20;93.20
24412;DHT22;12544;46.760;15.942;2022-08-25T16:03:59;30.30;93.40
24412;DHT22;12544;46.760;15.942;2022-08-25T16:06:25;30.30;93.10
24412;DHT22;12544;46.760;15.942;2022-08-25T16:08:51;30.40;93.10
24412;DHT22;12544;46.760;15.942;2022-08-25T16:11:17;30.40;93.50
24412;DHT22;12544;46.760;15.942;2022-08-25T16:13:44;30.30;93.00
24412;DHT22;12544;46.760;15.942;2022-08-25T16:16:09;30.00;93.20
24412;DHT22;12544;46.760;15.942;2022-08-25T16:18:35;29.80;94.30
24412;DHT22;12544;46.760;15.942;2022-08-25T16:21:00;29.80;93.80
24412;DHT22;12544;46.760;15.942;2022-08-25T16:23:26;29.80;94.50
24412;DHT22;12544;46.760;15.942;2022-08-25T16:25:52;29.60;94.10
24412;DHT22;12544;46.760;15.942;2022-08-25T16:28:17;29.60;94.30
24412;DHT22;12544;46.760;15.942;2022-08-25T16:30:44;29.60;94.20
24412;DHT22;12544;46.760;15.942;2022-08-25T16:33:09;29.60;94.60
24412;DHT22;12544;46.760;15.942;2022-08-25T16:35:35;29.50;94.60
24412;DHT22;12544;46.760;15.942;2022-08-25T16:38:00;29.30;94.80
24412;DHT22;12544;46.760;15.942;2022-08-25T16:40:26;29.00;94.70
24412;DHT22;12544;46.760;15.942;2022-08-25T16:42:52;28.60;94.90
24412;DHT22;12544;46.760;15.942;2022-08-25T16:45:19;28.40;95.20
24412;DHT22;12544;46.760;15.942;2022-08-25T16:47:45;28.30;95.80
24412;DHT22;12544;46.760;15.942;2022-08-25T16:50:11;28.20;95.90
24412;DHT22;12544;46.760;15.942;2022-08-25T16:52:37;28.10;96.00
24412;DHT22;12544;46.760;15.942;2022-08-25T16:55:21;28.00;96.40
24412;DHT22;12544;46.760;15.942;2022-08-25T16:57:48;28.00;96.40
24412;DHT22;12544;46.760;15.942;2022-08-25T17:00:17;27.80;96.70
24412;DHT22;12544;46.760;15.942;2022-08-25T17:02:43;27.80;96.90
24412;DHT22;12544;46.760;15.942;2022-08-25T17:05:09;27.90;97.10
24412;DHT22;12544;46.760;15.942;2022-08-25T17:07:35;27.90;97.20
24412;DHT22;12544;46.760;15.942;2022-08-25T17:10:02;27.90;97.20
24412;DHT22;12544;46.760;15.942;2022-08-25T17:12:27;27.90;97.30
24412;DHT22;12544;46.760;15.942;2022-08-25T17:14:53;27.90;97.40
24412;DHT22;12544;46.760;15.942;2022-08-25T17:17:19;27.90;97.30
24412;DHT22;12544;46.760;15.942;2022-08-25T17:19:45;27.80;97.30
24412;DHT22;12544;46.760;15.942;2022-08-25T17:22:11;27.80;97.60
24412;DHT22;12544;46.760;15.942;2022-08-25T17:24:43;27.80;97.60
24412;DHT22;12544;46.760;15.942;2022-08-25T17:27:10;27.80;97.60